Time;durP1;ratioP1;P1;durP2;ratioP2;P2;SDS_P1;SDS_P2;PMS_P1;PMS_P2;Temp;Humidity;BMP_temperature;BMP_pressure;BME280_temperature;BME280_humidity;BME280_pressure;Samples;Min_cycle;Max_cycle;Signal;HPM_P1;HPM_P2
2023/12/14 05:05:00;;;;;;;0.40;0.40;;;7.40;99.90;;;;;;6064912;23;20214;-69
2023/12/14 05:07:26;;;;;;;0.30;0.30;;;7.40;99.90;;;;;;4938201;29;20213;-66
2023/12/14 05:09:51;;;;;;;0.50;0.50;;;7.40;99.90;;;;;;4936781;29;20180;-67
2023/12/14 05:12:17;;;;;;;0.30;0.30;;;7.40;99.90;;;;;;4935009;29;20216;-67
2023/12/14 05:14:42;;;;;;;0.30;0.30;;;7.40;99.90;;;;;;4934661;29;20205;-67
2023/12/14 05:17:08;;;;;;;0.40;0.40;;;7.40;99.90;;;;;;4931909;29;20270;-68
2023/12/14 05:19:34;;;;;;;0.30;0.30;;;7.40;99.90;;;;;;4934937;29;20181;-68
2023/12/14 05:22:00;;;;;;;0.30;0.30;;;7.40;99.90;;;;;;4936413;29;20176;-69
2023/12/14 05:24:25;;;;;;;0.30;0.30;;;7.40;99.90;;;;;;4936082;29;20543;-69
2023/12/14 05:26:51;;;;;;;0.30;0.30;;;7.40;99.90;;;;;;4936293;29;20200;-68
2023/12/14 05:29:17;;;;;;;0.40;0.40;;;7.50;99.90;;;;;;4936010;29;20181;-69
2023/12/14 05:31:42;;;;;;;0.30;0.30;;;7.50;99.90;;;;;;4935856;29;20239;-68
2023/12/14 05:34:08;;;;;;;0.40;0.40;;;7.50;99.90;;;;;;4935661;29;20474;-68
2023/12/14 05:36:33;;;;;;;0.30;0.30;;;7.50;99.90;;;;;;4934944;29;20205;-68
2023/12/14 05:38:59;;;;;;;0.30;0.30;;;7.50;99.90;;;;;;4936053;29;20188;-68
2023/12/14 05:41:25;;;;;;;0.30;0.30;;;7.50;99.90;;;;;;4936341;29;20185;-69
2023/12/14 05:43:51;;;;;;;0.30;0.30;;;7.50;99.90;;;;;;4936343;29;20588;-68
2023/12/14 05:46:23;;;;;;;0.40;0.40;;;7.50;99.90;;;;;;4932783;29;20189;-69
2023/12/14 05:48:49;;;;;;;0.50;0.50;;;7.60;99.90;;;;;;4936020;29;20174;-69
2023/12/14 05:51:29;;;;;;;0.30;0.30;;;7.60;99.90;;;;;;4936052;29;20248;-69
2023/12/14 05:53:54;;;;;;;0.30;0.30;;;7.50;99.90;;;;;;4935986;29;20178;-68
2023/12/14 05:56:20;;;;;;;0.30;0.30;;;7.60;99.90;;;;;;4935538;29;20612;-68
2023/12/14 05:58:46;;;;;;;0.40;0.40;;;7.60;99.90;;;;;;4935844;29;20588;-68
2023/12/14 06:01:11;;;;;;;0.27;0.27;;;7.60;99.90;;;;;;4935640;29;20232;-68
2023/12/14 06:03:37;;;;;;;0.30;0.30;;;7.50;99.90;;;;;;4935752;29;20235;-67
2023/12/14 06:06:02;;;;;;;0.27;0.27;;;7.50;99.90;;;;;;4933796;29;20209;-69
2023/12/14 06:08:28;;;;;;;0.30;0.30;;;7.50;99.90;;;;;;4934444;29;20189;-68
2023/12/14 06:10:53;;;;;;;0.30;0.30;;;7.50;99.90;;;;;;4934387;29;20197;-69
2023/12/14 06:13:21;;;;;;;0.30;0.30;;;7.50;99.90;;;;;;4933743;29;20173;-68
2023/12/14 06:15:46;;;;;;;0.30;0.30;;;7.50;99.90;;;;;;4905972;29;20189;-67
2023/12/14 06:18:13;;;;;;;0.33;0.33;;;7.50;99.90;;;;;;4933826;29;20667;-68
2023/12/14 06:20:40;;;;;;;0.30;0.30;;;7.50;99.90;;;;;;4922707;29;20652;-69
2023/12/14 06:23:06;;;;;;;0.20;0.20;;;7.50;99.90;;;;;;4914912;29;20189;-68
2023/12/14 06:25:31;;;;;;;0.67;0.67;;;7.50;99.90;;;;;;4915591;29;20190;-67
2023/12/14 06:27:57;;;;;;;0.30;0.30;;;7.50;99.90;;;;;;4928141;29;20268;-68
2023/12/14 06:30:23;;;;;;;0.47;0.47;;;7.50;99.90;;;;;;4936868;29;20616;-67
2023/12/14 06:32:49;;;;;;;0.30;0.30;;;7.50;99.90;;;;;;4938734;29;20173;-67
2023/12/14 06:35:15;;;;;;;0.30;0.30;;;7.60;99.90;;;;;;4928715;29;20198;-67
2023/12/14 06:37:42;;;;;;;0.27;0.27;;;7.60;99.90;;;;;;4919533;29;20176;-69
2023/12/14 06:40:08;;;;;;;0.30;0.30;;;7.60;99.90;;;;;;4919739;29;20257;-66
2023/12/14 06:42:34;;;;;;;0.30;0.30;;;7.60;99.90;;;;;;4919326;29;20186;-69
2023/12/14 06:45:02;;;;;;;0.20;0.20;;;7.60;99.90;;;;;;4923564;29;20261;-68
2023/12/14 06:47:28;;;;;;;0.32;0.32;;;7.60;99.90;;;;;;4938279;29;20173;-68
2023/12/14 06:49:54;;;;;;;0.30;0.30;;;7.60;99.90;;;;;;4938673;29;20667;-69
2023/12/14 06:52:19;;;;;;;0.30;0.30;;;7.70;99.90;;;;;;4934480;29;20244;-69
2023/12/14 06:54:45;;;;;;;0.30;0.30;;;7.70;99.90;;;;;;4935821;29;20203;-70
2023/12/14 06:57:10;;;;;;;0.20;0.20;;;7.80;99.90;;;;;;4936880;29;20539;-69
2023/12/14 06:59:36;;;;;;;0.30;0.30;;;7.80;99.90;;;;;;4936183;29;20173;-71
2023/12/14 07:02:02;;;;;;;0.70;0.70;;;7.70;99.90;;;;;;4936196;29;20220;-70
2023/12/14 07:04:27;;;;;;;0.47;0.47;;;7.80;99.90;;;;;;4936464;29;20181;-70
2023/12/14 07:06:53;;;;;;;0.30;0.30;;;7.80;99.90;;;;;;4938055;29;20221;-69
2023/12/14 07:09:19;;;;;;;0.37;0.37;;;7.80;99.90;;;;;;4937313;29;20706;-70
2023/12/14 07:11:44;;;;;;;0.47;0.47;;;7.80;99.90;;;;;;4937484;29;20731;-69
2023/12/14 07:14:10;;;;;;;0.30;0.30;;;7.80;99.90;;;;;;4937203;29;20170;-69
2023/12/14 07:16:36;;;;;;;0.30;0.30;;;7.90;99.90;;;;;;4938317;29;20204;-69
2023/12/14 07:19:02;;;;;;;0.20;0.20;;;7.90;99.90;;;;;;4937816;29;20166;-68
2023/12/14 07:21:27;;;;;;;0.40;0.40;;;7.90;99.90;;;;;;4923513;29;20188;-69
2023/12/14 07:23:53;;;;;;;0.30;0.30;;;7.90;99.90;;;;;;4928193;29;20197;-70
2023/12/14 07:26:19;;;;;;;0.27;0.27;;;7.90;99.90;;;;;;4929880;29;20186;-71
2023/12/14 07:28:44;;;;;;;1.15;0.68;;;8.00;99.90;;;;;;4918682;29;20170;-71
2023/12/14 07:31:10;;;;;;;0.27;0.27;;;8.00;99.90;;;;;;4926930;29;20341;-68
2023/12/14 07:33:36;;;;;;;0.30;0.30;;;8.00;99.90;;;;;;4918835;29;20171;-68
2023/12/14 07:36:01;;;;;;;0.30;0.30;;;8.00;99.90;;;;;;4917106;29;20193;-69
2023/12/14 07:38:27;;;;;;;0.30;0.30;;;8.00;99.90;;;;;;4918513;29;20167;-71
2023/12/14 07:40:53;;;;;;;0.40;0.40;;;8.00;99.90;;;;;;4933074;29;20187;-70
2023/12/14 07:43:18;;;;;;;0.30;0.30;;;8.10;99.90;;;;;;4937510;29;20166;-70
2023/12/14 07:45:45;;;;;;;0.27;0.27;;;8.10;99.90;;;;;;4936671;29;20265;-69
2023/12/14 07:48:11;;;;;;;0.30;0.30;;;8.10;99.90;;;;;;4937715;29;20547;-68
2023/12/14 07:50:36;;;;;;;0.30;0.30;;;8.20;99.90;;;;;;4936984;29;20288;-68
2023/12/14 07:53:02;;;;;;;1.20;0.63;;;8.20;99.90;;;;;;4936203;29;20241;-70
2023/12/14 07:55:28;;;;;;;0.20;0.20;;;8.20;99.90;;;;;;4937302;29;20225;-68
2023/12/14 07:57:54;;;;;;;0.30;0.30;;;8.20;99.90;;;;;;4937596;29;20388;-70
2023/12/14 08:00:20;;;;;;;0.30;0.30;;;8.20;99.90;;;;;;4937113;29;20181;-69
2023/12/14 08:02:45;;;;;;;0.40;0.40;;;8.20;99.90;;;;;;4936039;29;20264;-70
2023/12/14 08:05:11;;;;;;;0.40;0.40;;;8.20;99.90;;;;;;4936736;29;20194;-69
2023/12/14 08:07:37;;;;;;;0.30;0.30;;;8.30;99.90;;;;;;4935655;29;20216;-70
2023/12/14 08:10:03;;;;;;;0.40;0.40;;;8.30;99.90;;;;;;4937106;29;20413;-70
2023/12/14 08:12:28;;;;;;;0.20;0.20;;;8.30;99.90;;;;;;4936347;29;20292;-70
2023/12/14 08:14:54;;;;;;;0.30;0.30;;;8.30;99.90;;;;;;4934235;29;20255;-70
2023/12/14 08:17:21;;;;;;;0.30;0.30;;;8.30;99.90;;;;;;4936643;29;20205;-70
2023/12/14 08:19:47;;;;;;;0.30;0.30;;;8.40;99.90;;;;;;4935654;29;20173;-69
2023/12/14 08:22:15;;;;;;;0.37;0.37;;;8.40;99.90;;;;;;4928338;29;20225;-70
2023/12/14 08:24:41;;;;;;;0.30;0.30;;;8.40;99.90;;;;;;4917209;29;20265;-70
2023/12/14 08:27:06;;;;;;;0.32;0.32;;;8.40;99.90;;;;;;4916617;29;20194;-70
2023/12/14 08:29:32;;;;;;;0.57;0.57;;;8.40;99.90;;;;;;4922602;29;20247;-70
2023/12/14 08:31:59;;;;;;;0.30;0.30;;;8.40;99.90;;;;;;4937259;29;20205;-69
2023/12/14 08:34:25;;;;;;;0.30;0.30;;;8.40;99.90;;;;;;4937110;29;20170;-70
2023/12/14 08:36:51;;;;;;;0.30;0.30;;;8.30;99.90;;;;;;4937322;29;20583;-69
2023/12/14 08:39:17;;;;;;;0.30;0.30;;;8.40;99.90;;;;;;4921808;29;20178;-70
2023/12/14 08:41:44;;;;;;;0.43;0.43;;;8.40;99.90;;;;;;4924503;29;20437;-69
2023/12/14 08:44:10;;;;;;;0.30;0.30;;;8.50;99.90;;;;;;4936989;29;20410;-69
2023/12/14 08:46:46;;;;;;;0.30;0.30;;;8.50;99.90;;;;;;4936734;29;20212;-70
2023/12/14 08:49:12;;;;;;;0.68;0.68;;;8.60;99.90;;;;;;4936983;29;20907;-70
2023/12/14 08:51:39;;;;;;;0.30;0.30;;;8.70;99.90;;;;;;4929250;29;20700;-70
2023/12/14 08:54:05;;;;;;;0.30;0.30;;;8.70;99.90;;;;;;4916925;29;20179;-70
2023/12/14 08:56:31;;;;;;;0.30;0.30;;;8.80;99.90;;;;;;4932454;29;20202;-69
2023/12/14 08:58:58;;;;;;;0.37;0.37;;;8.90;99.90;;;;;;4935313;29;20178;-70
2023/12/14 09:01:24;;;;;;;0.30;0.30;;;8.90;99.90;;;;;;4931765;29;20176;-69
2023/12/14 09:03:50;;;;;;;0.30;0.30;;;9.10;99.90;;;;;;4936316;29;20173;-70
2023/12/14 09:06:17;;;;;;;1.70;1.23;;;9.10;99.90;;;;;;4935551;29;20722;-70
2023/12/14 09:08:43;;;;;;;0.30;0.30;;;9.20;99.90;;;;;;4936155;29;20518;-69
2023/12/14 09:11:09;;;;;;;0.30;0.30;;;9.20;99.90;;;;;;4935754;29;20290;-71
2023/12/14 09:13:35;;;;;;;0.30;0.30;;;9.20;99.90;;;;;;4935874;29;20709;-69
2023/12/14 09:16:00;;;;;;;0.30;0.30;;;9.20;99.90;;;;;;4916402;29;20221;-70
2023/12/14 09:18:26;;;;;;;0.30;0.30;;;9.10;99.90;;;;;;4917152;29;20257;-70
2023/12/14 09:20:51;;;;;;;0.30;0.30;;;9.10;99.90;;;;;;4917272;29;20181;-70
2023/12/14 09:23:18;;;;;;;0.40;0.40;;;9.20;99.90;;;;;;4917127;29;20174;-69
2023/12/14 09:25:45;;;;;;;0.30;0.30;;;9.20;99.90;;;;;;4916468;29;20193;-70
2023/12/14 09:28:10;;;;;;;0.30;0.30;;;9.30;99.90;;;;;;4917085;29;20175;-69
2023/12/14 09:30:36;;;;;;;0.40;0.40;;;9.30;99.90;;;;;;4916490;29;20213;-69
2023/12/14 09:33:01;;;;;;;0.30;0.30;;;9.50;99.90;;;;;;4916784;29;20235;-70
2023/12/14 09:35:27;;;;;;;0.30;0.30;;;9.60;99.90;;;;;;4916216;29;20215;-70
2023/12/14 09:37:53;;;;;;;0.30;0.30;;;9.90;99.90;;;;;;4916606;29;20173;-71
2023/12/14 09:40:19;;;;;;;0.30;0.30;;;10.20;99.90;;;;;;4916781;29;20263;-70
2023/12/14 09:42:45;;;;;;;0.30;0.30;;;10.50;99.90;;;;;;4916575;29;20432;-70
2023/12/14 09:45:11;;;;;;;0.50;0.50;;;10.80;99.90;;;;;;4915903;29;20464;-70
2023/12/14 09:47:37;;;;;;;0.80;0.80;;;10.90;99.90;;;;;;4915287;29;20920;-69
2023/12/14 09:50:05;;;;;;;0.30;0.30;;;11.00;99.90;;;;;;4916589;29;20390;-69
2023/12/14 09:52:31;;;;;;;0.30;0.30;;;10.90;99.90;;;;;;4916438;29;20460;-70
2023/12/14 09:54:56;;;;;;;0.97;0.47;;;10.90;99.90;;;;;;4914696;29;20477;-70
2023/12/14 09:57:24;;;;;;;0.40;0.40;;;10.80;99.90;;;;;;4915165;29;20543;-69
2023/12/14 09:59:53;;;;;;;0.30;0.20;;;10.80;99.90;;;;;;4916328;29;20177;-69
2023/12/14 10:02:20;;;;;;;0.30;0.30;;;10.80;99.90;;;;;;4916631;29;20443;-70
2023/12/14 10:04:46;;;;;;;0.30;0.30;;;10.80;99.90;;;;;;4917424;29;20466;-69
2023/12/14 10:07:12;;;;;;;0.30;0.30;;;11.00;99.90;;;;;;4920354;29;20448;-69
2023/12/14 10:09:38;;;;;;;0.30;0.20;;;11.20;99.90;;;;;;4920510;29;20418;-69
2023/12/14 10:12:08;;;;;;;0.40;0.40;;;11.50;99.90;;;;;;4920433;29;20343;-68
2023/12/14 10:14:35;;;;;;;0.30;0.20;;;11.60;99.90;;;;;;4919736;29;20436;-74
2023/12/14 10:17:23;;;;;;;0.30;0.30;;;11.70;99.90;;;;;;4919977;29;20488;-76
2023/12/14 10:19:49;;;;;;;0.40;0.40;;;11.60;99.90;;;;;;4921704;29;20529;-76
2023/12/14 10:22:17;;;;;;;0.30;0.30;;;11.50;99.90;;;;;;4935077;29;20499;-76
2023/12/14 10:24:44;;;;;;;0.47;0.47;;;11.40;99.90;;;;;;4938616;29;20675;-70
2023/12/14 10:27:11;;;;;;;0.53;0.53;;;11.30;99.90;;;;;;4932333;29;20425;-70
2023/12/14 10:29:40;;;;;;;0.30;0.30;;;11.20;99.90;;;;;;4938511;29;20457;-69
2023/12/14 10:32:08;;;;;;;0.30;0.20;;;11.10;99.90;;;;;;4938741;29;20506;-70
2023/12/14 10:34:35;;;;;;;0.30;0.30;;;11.00;99.90;;;;;;4938036;29;20529;-70
2023/12/14 10:37:01;;;;;;;0.30;0.20;;;10.90;99.90;;;;;;4936770;29;20785;-69
2023/12/14 10:39:29;;;;;;;0.30;0.30;;;10.90;99.90;;;;;;4938771;29;20498;-70
2023/12/14 10:41:57;;;;;;;0.30;0.30;;;10.80;99.90;;;;;;4935612;29;20434;-69
2023/12/14 10:44:25;;;;;;;0.30;0.30;;;10.70;99.90;;;;;;4938387;29;20402;-69
2023/12/14 10:46:57;;;;;;;0.30;0.30;;;10.50;99.90;;;;;;4938098;29;20451;-70
2023/12/14 10:49:26;;;;;;;0.30;0.20;;;10.50;99.90;;;;;;4938797;29;20504;-70
2023/12/14 10:51:55;;;;;;;0.30;0.20;;;10.30;99.90;;;;;;4936545;29;20548;-71
2023/12/14 10:54:22;;;;;;;0.30;0.30;;;10.20;99.90;;;;;;4938238;29;20417;-72
2023/12/14 10:56:48;;;;;;;0.33;0.33;;;10.20;99.90;;;;;;4934956;29;20781;-71
2023/12/14 10:59:17;;;;;;;0.30;0.30;;;10.10;99.90;;;;;;4938537;29;20470;-71
2023/12/14 11:01:42;;;;;;;0.30;0.30;;;10.00;99.90;;;;;;4936753;29;20229;-70
2023/12/14 11:04:13;;;;;;;0.30;0.30;;;9.90;99.90;;;;;;4937798;29;20447;-70
2023/12/14 11:06:39;;;;;;;0.30;0.30;;;9.90;99.90;;;;;;4938188;29;20214;-70
2023/12/14 11:09:06;;;;;;;0.30;0.20;;;9.90;99.90;;;;;;4938322;29;20426;-70
2023/12/14 11:11:44;;;;;;;0.43;0.43;;;9.80;99.90;;;;;;4930888;29;20463;-69
2023/12/14 11:14:13;;;;;;;0.30;0.30;;;9.80;99.90;;;;;;4937584;29;20417;-68
2023/12/14 11:16:44;;;;;;;0.30;0.30;;;9.90;99.90;;;;;;4935904;29;20211;-65
2023/12/14 11:19:22;;;;;;;0.30;0.30;;;10.00;99.90;;;;;;4938267;29;20698;-66
2023/12/14 11:21:48;;;;;;;0.30;0.30;;;10.00;99.90;;;;;;4938085;29;20407;-66
2023/12/14 11:24:15;;;;;;;0.30;0.30;;;10.10;99.90;;;;;;4933063;29;21204;-66
2023/12/14 11:26:41;;;;;;;0.30;0.20;;;10.20;99.90;;;;;;4936423;29;20447;-65
2023/12/14 11:29:06;;;;;;;0.40;0.40;;;10.20;99.90;;;;;;4939030;29;20907;-66
2023/12/14 11:31:32;;;;;;;0.30;0.30;;;10.20;99.90;;;;;;4938511;29;20725;-66
2023/12/14 11:34:00;;;;;;;0.33;0.33;;;10.20;99.90;;;;;;4938251;29;20461;-65
2023/12/14 11:36:26;;;;;;;0.30;0.20;;;10.30;99.90;;;;;;4938557;29;20606;-67
2023/12/14 11:38:54;;;;;;;0.30;0.30;;;10.30;99.90;;;;;;4932462;29;20422;-66
2023/12/14 11:41:21;;;;;;;0.30;0.27;;;10.30;99.90;;;;;;4938123;29;20414;-65
2023/12/14 11:43:47;;;;;;;0.33;0.33;;;10.40;99.90;;;;;;4938233;29;20403;-65
2023/12/14 11:46:14;;;;;;;0.30;0.30;;;10.40;99.90;;;;;;4937523;29;20656;-66
2023/12/14 11:48:39;;;;;;;0.30;0.30;;;10.50;99.90;;;;;;4938170;29;20502;-66
2023/12/14 11:51:05;;;;;;;0.30;0.30;;;10.50;99.90;;;;;;4938100;29;20939;-68
2023/12/14 11:53:32;;;;;;;0.30;0.30;;;10.50;99.90;;;;;;4926637;29;20184;-66
2023/12/14 11:56:02;;;;;;;0.30;0.30;;;10.40;99.90;;;;;;4923043;29;20195;-65
2023/12/14 11:58:28;;;;;;;0.33;0.33;;;10.30;99.90;;;;;;4928438;29;20472;-66
2023/12/14 12:00:55;;;;;;;0.30;0.30;;;10.20;99.90;;;;;;4937738;29;20940;-67
2023/12/14 12:03:24;;;;;;;0.30;0.30;;;10.20;99.90;;;;;;4937901;29;20265;-66
2023/12/14 12:05:51;;;;;;;0.30;0.30;;;10.20;99.90;;;;;;4937383;29;20430;-67
2023/12/14 12:08:19;;;;;;;0.30;0.30;;;10.10;99.90;;;;;;4926210;29;20463;-65
2023/12/14 12:10:46;;;;;;;0.30;0.30;;;10.20;99.90;;;;;;4924863;29;20462;-65
2023/12/14 12:13:14;;;;;;;0.30;0.30;;;10.20;99.90;;;;;;4921587;29;20180;-66
2023/12/14 12:15:40;;;;;;;0.30;0.30;;;10.20;99.90;;;;;;4921546;29;20486;-68
2023/12/14 12:18:06;;;;;;;0.30;0.20;;;10.20;99.90;;;;;;4937218;29;20428;-65
2023/12/14 12:20:32;;;;;;;0.30;0.30;;;10.20;99.90;;;;;;4937708;29;20168;-68
2023/12/14 12:22:58;;;;;;;0.30;0.30;;;10.20;99.90;;;;;;4926687;29;20902;-66
2023/12/14 12:25:24;;;;;;;0.70;0.70;;;10.10;99.90;;;;;;4920959;29;20199;-65
2023/12/14 12:27:49;;;;;;;1.07;1.07;;;10.00;99.90;;;;;;4931675;29;20502;-65
2023/12/14 12:30:15;;;;;;;0.30;0.20;;;10.00;99.90;;;;;;4919775;29;20166;-65
2023/12/14 12:32:41;;;;;;;0.37;0.37;;;9.90;99.90;;;;;;4931542;29;20297;-66
2023/12/14 12:35:07;;;;;;;0.30;0.30;;;9.90;99.90;;;;;;4917919;29;20423;-64
2023/12/14 12:37:33;;;;;;;0.30;0.30;;;9.90;99.90;;;;;;4918114;29;20184;-67
2023/12/14 12:39:59;;;;;;;0.30;0.30;;;9.80;99.90;;;;;;4918144;29;20255;-66
2023/12/14 12:42:25;;;;;;;0.30;0.30;;;9.80;99.90;;;;;;4931515;29;20514;-66
2023/12/14 12:44:51;;;;;;;0.33;0.33;;;9.80;99.90;;;;;;4917778;29;20176;-65
2023/12/14 12:47:17;;;;;;;0.30;0.30;;;9.70;99.90;;;;;;4934068;29;20664;-66
2023/12/14 12:49:43;;;;;;;0.30;0.23;;;9.70;99.90;;;;;;4935741;29;20192;-66
2023/12/14 12:52:09;;;;;;;0.30;0.30;;;9.70;99.90;;;;;;4936836;29;20202;-67
2023/12/14 12:54:35;;;;;;;0.30;0.30;;;9.70;99.90;;;;;;4926021;29;20184;-65
2023/12/14 12:57:01;;;;;;;0.40;0.40;;;9.60;99.90;;;;;;4930561;29;20446;-65
2023/12/14 12:59:26;;;;;;;0.50;0.50;;;9.50;99.90;;;;;;4936643;29;20411;-65
2023/12/14 13:01:53;;;;;;;0.30;0.30;;;9.50;99.90;;;;;;4931804;29;20242;-65
2023/12/14 13:04:21;;;;;;;0.30;0.30;;;9.50;99.90;;;;;;4936485;29;20203;-67
2023/12/14 13:06:50;;;;;;;0.30;0.30;;;9.50;99.90;;;;;;4917264;29;20215;-67
2023/12/14 13:09:20;;;;;;;0.30;0.30;;;9.50;99.90;;;;;;4923810;29;20233;-66
2023/12/14 13:11:46;;;;;;;0.30;0.20;;;9.50;99.90;;;;;;4927279;29;20535;-66
2023/12/14 13:14:11;;;;;;;0.93;0.93;;;9.50;99.90;;;;;;4917202;29;20184;-68
2023/12/14 13:16:38;;;;;;;0.30;0.30;;;9.50;99.90;;;;;;4925446;29;20792;-66
2023/12/14 13:19:06;;;;;;;0.30;0.30;;;9.50;99.90;;;;;;4936386;29;20174;-66
2023/12/14 13:21:35;;;;;;;0.38;0.38;;;9.50;99.90;;;;;;4936405;29;20182;-65
2023/12/14 13:24:01;;;;;;;0.30;0.30;;;9.50;99.90;;;;;;4927516;29;20185;-67
2023/12/14 13:26:27;;;;;;;0.40;0.40;;;9.40;99.90;;;;;;4936487;29;20248;-64
2023/12/14 13:28:53;;;;;;;0.30;0.30;;;9.30;99.90;;;;;;4935137;29;20655;-65
2023/12/14 13:31:18;;;;;;;0.30;0.30;;;9.30;99.90;;;;;;4935791;29;20286;-65
2023/12/14 13:33:46;;;;;;;0.30;0.30;;;9.20;99.90;;;;;;4936247;29;20166;-67
2023/12/14 13:36:12;;;;;;;0.30;0.30;;;9.10;99.90;;;;;;4935873;29;20193;-67
2023/12/14 13:38:37;;;;;;;0.30;0.27;;;9.00;99.90;;;;;;4935950;29;20173;-65
2023/12/14 13:41:03;;;;;;;0.30;0.20;;;8.90;99.90;;;;;;4931680;29;20186;-66
2023/12/14 13:43:29;;;;;;;0.40;0.40;;;8.80;99.90;;;;;;4917153;29;20173;-67
2023/12/14 13:45:57;;;;;;;0.30;0.30;;;8.70;99.90;;;;;;4916675;29;20445;-67
2023/12/14 13:48:27;;;;;;;0.38;0.38;;;8.70;99.90;;;;;;4928390;29;20181;-66
2023/12/14 13:50:53;;;;;;;0.30;0.30;;;8.70;99.90;;;;;;4918985;29;20432;-65
2023/12/14 13:53:19;;;;;;;0.40;0.40;;;8.70;99.90;;;;;;4916607;29;20174;-66
2023/12/14 13:55:46;;;;;;;0.30;0.20;;;8.60;99.90;;;;;;4916516;29;20190;-66
2023/12/14 13:58:12;;;;;;;0.40;0.40;;;8.60;99.90;;;;;;4916984;29;20167;-65
2023/12/14 14:00:38;;;;;;;0.80;0.80;;;8.60;99.90;;;;;;4916852;29;20446;-66
2023/12/14 14:03:05;;;;;;;0.32;0.32;;;8.60;99.90;;;;;;4917030;29;20170;-66
2023/12/14 14:05:31;;;;;;;0.40;0.40;;;8.60;99.90;;;;;;4916567;29;20268;-67
2023/12/14 14:07:57;;;;;;;0.30;0.30;;;8.60;99.90;;;;;;4916887;29;20238;-66
2023/12/14 14:10:23;;;;;;;0.30;0.30;;;8.60;99.90;;;;;;4916859;29;20185;-66
2023/12/14 14:12:49;;;;;;;0.30;0.30;;;8.50;99.90;;;;;;4916895;29;20422;-69
2023/12/14 14:15:15;;;;;;;0.40;0.40;;;8.50;99.90;;;;;;4916363;29;20201;-67
2023/12/14 14:17:40;;;;;;;0.30;0.30;;;8.40;99.90;;;;;;4916872;29;20256;-65
2023/12/14 14:20:08;;;;;;;0.30;0.30;;;8.40;99.90;;;;;;4917063;29;20240;-65
2023/12/14 14:22:33;;;;;;;0.43;0.43;;;8.40;99.90;;;;;;4916771;29;20171;-67
2023/12/14 14:25:00;;;;;;;0.30;0.30;;;8.50;99.90;;;;;;4915168;29;20173;-67
2023/12/14 14:27:25;;;;;;;0.30;0.30;;;8.40;99.90;;;;;;4916789;29;20193;-68
2023/12/14 14:29:54;;;;;;;0.30;0.30;;;8.40;99.90;;;;;;4916721;29;20178;-66
2023/12/14 14:32:19;;;;;;;0.30;0.30;;;8.40;99.90;;;;;;4915467;29;20676;-66
2023/12/14 14:34:45;;;;;;;0.30;0.30;;;8.40;99.90;;;;;;4916613;29;20250;-65
2023/12/14 14:37:11;;;;;;;0.40;0.40;;;8.40;99.90;;;;;;4916801;29;20242;-67
2023/12/14 14:39:39;;;;;;;0.30;0.30;;;8.30;99.90;;;;;;4916883;29;20170;-66
2023/12/14 14:42:05;;;;;;;0.30;0.30;;;8.30;99.90;;;;;;4916764;29;20264;-67
2023/12/14 14:44:30;;;;;;;0.28;0.28;;;8.20;99.90;;;;;;4916388;29;20708;-67
2023/12/14 14:46:56;;;;;;;0.40;0.40;;;8.20;99.90;;;;;;4916552;29;20288;-67
2023/12/14 14:49:22;;;;;;;0.30;0.30;;;8.20;99.90;;;;;;4916484;29;20230;-66
2023/12/14 14:51:47;;;;;;;0.20;0.20;;;8.20;99.90;;;;;;4919011;29;20563;-66
2023/12/14 14:54:13;;;;;;;0.30;0.30;;;8.20;99.90;;;;;;4919738;29;20170;-67
2023/12/14 14:56:40;;;;;;;0.30;0.30;;;8.20;99.90;;;;;;4919879;29;20218;-65
2023/12/14 14:59:07;;;;;;;0.30;0.30;;;8.20;99.90;;;;;;4920087;29;20171;-66
2023/12/14 15:01:32;;;;;;;0.30;0.30;;;8.20;99.90;;;;;;4919875;29;20197;-65
2023/12/14 15:03:59;;;;;;;0.30;0.30;;;8.10;99.90;;;;;;4919780;29;20174;-68
2023/12/14 15:06:24;;;;;;;0.20;0.20;;;8.10;99.90;;;;;;4919898;29;20198;-66
2023/12/14 15:08:50;;;;;;;0.30;0.30;;;8.20;99.90;;;;;;4919918;29;20178;-67
2023/12/14 15:11:16;;;;;;;0.30;0.30;;;8.20;99.90;;;;;;4919790;29;20241;-66
2023/12/14 15:13:41;;;;;;;0.30;0.30;;;8.20;99.90;;;;;;4920060;29;20528;-66
2023/12/14 15:16:07;;;;;;;0.30;0.30;;;8.20;99.90;;;;;;4919298;29;20194;-66
2023/12/14 15:18:33;;;;;;;0.30;0.30;;;8.10;99.90;;;;;;4919767;29;20208;-65
2023/12/14 15:20:59;;;;;;;0.30;0.30;;;8.10;99.90;;;;;;4918310;29;20437;-66
2023/12/14 15:23:24;;;;;;;0.30;0.30;;;8.10;99.90;;;;;;4919531;29;20421;-66
2023/12/14 15:25:50;;;;;;;0.70;0.70;;;8.10;99.90;;;;;;4919091;29;20648;-67
2023/12/14 15:28:16;;;;;;;0.30;0.20;;;8.20;99.90;;;;;;4919498;29;20178;-64
2023/12/14 15:30:41;;;;;;;0.20;0.20;;;8.10;99.90;;;;;;4918184;29;20188;-67
2023/12/14 15:33:07;;;;;;;0.30;0.30;;;8.10;99.90;;;;;;4919712;29;20177;-66
2023/12/14 15:35:32;;;;;;;0.30;0.30;;;8.10;99.90;;;;;;4919056;29;20657;-66
2023/12/14 15:37:58;;;;;;;0.30;0.30;;;8.10;99.90;;;;;;4919673;29;20171;-64
2023/12/14 15:40:23;;;;;;;0.30;0.30;;;8.10;99.90;;;;;;4919270;29;20182;-66
2023/12/14 15:42:51;;;;;;;0.30;0.30;;;8.10;99.90;;;;;;4919461;29;20182;-66
2023/12/14 15:45:17;;;;;;;0.35;0.35;;;8.10;99.90;;;;;;4918736;29;20218;-68
2023/12/14 15:47:42;;;;;;;0.68;0.50;;;8.10;99.90;;;;;;4919131;29;20186;-66
2023/12/14 15:50:08;;;;;;;0.53;0.53;;;8.10;99.90;;;;;;4919389;29;20178;-66
2023/12/14 15:52:34;;;;;;;0.40;0.40;;;8.10;99.90;;;;;;4919113;29;20201;-67
2023/12/14 15:55:00;;;;;;;0.30;0.30;;;8.10;99.90;;;;;;4918796;29;20417;-65
2023/12/14 15:57:26;;;;;;;0.28;0.28;;;8.10;99.90;;;;;;4919318;29;20202;-68
2023/12/14 15:59:51;;;;;;;0.33;0.33;;;8.10;99.90;;;;;;4917260;29;20197;-65
2023/12/14 16:02:17;;;;;;;1.27;1.23;;;8.10;99.90;;;;;;4918705;29;20178;-66
2023/12/14 16:04:44;;;;;;;0.30;0.30;;;8.10;99.90;;;;;;4918574;29;20635;-66
2023/12/14 16:07:10;;;;;;;0.30;0.30;;;8.10;99.90;;;;;;4918746;29;20295;-68
2023/12/14 16:09:36;;;;;;;0.30;0.30;;;8.10;99.90;;;;;;4918805;29;20232;-68
2023/12/14 16:12:04;;;;;;;0.30;0.30;;;8.10;99.90;;;;;;4918696;29;20461;-65
2023/12/14 16:14:29;;;;;;;0.30;0.30;;;8.10;99.90;;;;;;4918439;29;20568;-66
2023/12/14 16:16:55;;;;;;;0.40;0.40;;;8.10;99.90;;;;;;4918628;29;20277;-67
2023/12/14 16:19:20;;;;;;;0.30;0.30;;;8.10;99.90;;;;;;4918519;29;20170;-67
2023/12/14 16:21:46;;;;;;;0.30;0.30;;;8.10;99.90;;;;;;4918614;29;20181;-66
2023/12/14 16:24:11;;;;;;;0.30;0.30;;;8.10;99.90;;;;;;4918144;29;20551;-67
2023/12/14 16:26:41;;;;;;;0.30;0.30;;;8.20;99.90;;;;;;4918343;29;20198;-65
2023/12/14 16:29:07;;;;;;;0.30;0.30;;;8.20;99.90;;;;;;4918480;29;20170;-66
2023/12/14 16:31:32;;;;;;;0.50;0.50;;;8.10;99.90;;;;;;4917177;29;20198;-64
2023/12/14 16:33:58;;;;;;;0.30;0.30;;;8.10;99.90;;;;;;4918241;29;20414;-67
2023/12/14 16:36:24;;;;;;;0.27;0.27;;;8.10;99.90;;;;;;4918097;29;20194;-66
2023/12/14 16:38:49;;;;;;;0.30;0.30;;;8.10;99.90;;;;;;4918356;29;20261;-67
2023/12/14 16:41:19;;;;;;;0.30;0.30;;;8.10;99.90;;;;;;4918149;29;20174;-65
2023/12/14 16:43:44;;;;;;;0.20;0.20;;;8.20;99.90;;;;;;4916969;29;20273;-67
2023/12/14 16:46:10;;;;;;;0.40;0.40;;;8.20;99.90;;;;;;4917808;29;20721;-66
2023/12/14 16:48:35;;;;;;;0.40;0.40;;;8.20;99.90;;;;;;4916730;29;20528;-66
2023/12/14 16:51:03;;;;;;;0.30;0.30;;;8.20;99.90;;;;;;4918052;29;20201;-67
2023/12/14 16:53:29;;;;;;;1.33;0.68;;;8.20;99.90;;;;;;4917922;29;20174;-67
2023/12/14 16:55:58;;;;;;;0.30;0.30;;;8.20;99.90;;;;;;4916739;29;20522;-67
2023/12/14 16:58:25;;;;;;;0.40;0.40;;;8.10;99.90;;;;;;4917962;29;20178;-67
2023/12/14 17:00:53;;;;;;;0.30;0.30;;;8.20;99.90;;;;;;4918000;29;20228;-66
2023/12/14 17:03:19;;;;;;;0.40;0.40;;;8.20;99.90;;;;;;4918038;29;20323;-67
2023/12/14 17:05:45;;;;;;;0.30;0.30;;;8.20;99.90;;;;;;4916074;29;20201;-65
2023/12/14 17:08:10;;;;;;;0.30;0.30;;;8.20;99.90;;;;;;4917501;29;20196;-67
2023/12/14 17:10:36;;;;;;;0.30;0.30;;;8.20;99.90;;;;;;4917498;29;20649;-67
2023/12/14 17:13:02;;;;;;;0.30;0.30;;;8.20;99.90;;;;;;4916963;29;20574;-66
2023/12/14 17:15:28;;;;;;;0.40;0.40;;;8.10;99.90;;;;;;4917408;29;20220;-66
2023/12/14 17:17:54;;;;;;;0.30;0.30;;;8.10;99.90;;;;;;4917996;29;20202;-67
2023/12/14 17:20:20;;;;;;;0.30;0.30;;;8.20;99.90;;;;;;4916461;29;20956;-66
2023/12/14 17:22:45;;;;;;;0.30;0.30;;;8.20;99.90;;;;;;4917466;29;20170;-65
2023/12/14 17:25:12;;;;;;;0.47;0.47;;;8.10;99.90;;;;;;4917365;29;20951;-66
2023/12/14 17:27:37;;;;;;;0.30;0.30;;;8.10;99.90;;;;;;4917739;29;20185;-64
2023/12/14 17:30:04;;;;;;;0.30;0.30;;;8.00;99.90;;;;;;4917505;29;20537;-64
2023/12/14 17:32:29;;;;;;;0.40;0.40;;;7.90;99.90;;;;;;4917525;29;20201;-63
2023/12/14 17:34:55;;;;;;;1.23;1.13;;;7.90;99.90;;;;;;4917092;29;20174;-65
2023/12/14 17:37:21;;;;;;;0.70;0.70;;;7.80;99.90;;;;;;4917279;29;20629;-65
2023/12/14 17:39:46;;;;;;;0.30;0.30;;;7.80;99.90;;;;;;4917461;29;20212;-64
2023/12/14 17:42:12;;;;;;;0.30;0.30;;;7.70;99.90;;;;;;4916017;29;20182;-63
2023/12/14 17:44:37;;;;;;;0.30;0.30;;;7.60;99.90;;;;;;4916984;29;20181;-64
2023/12/14 17:47:03;;;;;;;0.47;0.47;;;7.60;99.90;;;;;;4917820;29;20571;-65
2023/12/14 17:49:29;;;;;;;0.43;0.43;;;7.50;99.90;;;;;;4917203;29;20174;-65
2023/12/14 17:51:54;;;;;;;0.30;0.30;;;7.50;99.90;;;;;;4916656;29;20206;-65
2023/12/14 17:54:20;;;;;;;0.30;0.30;;;7.50;99.90;;;;;;4916913;29;20178;-65